Time;durP1;ratioP1;P1;durP2;ratioP2;P2;SDS_P1;SDS_P2;PMS_P1;PMS_P2;Temp;Humidity;BMP_temperature;BMP_pressure;BME280_temperature;BME280_humidity;BME280_pressure;Samples;Min_cycle;Max_cycle;Signal;HPM_P1;HPM_P2
2022/05/20 00:02:11;;;;;;;99.85;52.35;;;13.60;99.90;;;;;;5056770;28;20487;-70
2022/05/20 00:04:37;;;;;;;91.90;53.53;;;13.50;99.90;;;;;;5056662;28;20043;-70
2022/05/20 00:07:03;;;;;;;91.93;55.22;;;13.50;99.90;;;;;;5071784;22;20041;-69
2022/05/20 00:09:28;;;;;;;91.30;55.35;;;13.30;99.90;;;;;;5056636;28;20028;-67
2022/05/20 00:11:54;;;;;;;92.75;55.90;;;13.30;99.90;;;;;;5056756;28;20029;-67
2022/05/20 00:14:20;;;;;;;97.00;56.28;;;13.30;99.90;;;;;;5056252;28;20029;-67
2022/05/20 00:16:46;;;;;;;89.35;53.28;;;13.30;99.90;;;;;;5056049;28;20029;-67
2022/05/20 00:19:11;;;;;;;77.13;47.70;;;13.30;99.90;;;;;;5056105;28;20025;-67
2022/05/20 00:21:37;;;;;;;63.63;40.63;;;13.30;99.90;;;;;;5054659;28;20108;-67
2022/05/20 00:24:03;;;;;;;67.00;41.72;;;13.20;99.90;;;;;;5055965;28;20028;-67
2022/05/20 00:26:28;;;;;;;63.78;40.72;;;13.20;99.90;;;;;;5056429;28;20013;-67
2022/05/20 00:28:55;;;;;;;59.63;38.08;;;13.20;99.90;;;;;;5056147;28;20031;-67
2022/05/20 00:31:24;;;;;;;53.72;34.53;;;13.20;99.90;;;;;;5056085;28;20028;-67
2022/05/20 00:33:49;;;;;;;45.42;29.77;;;13.20;99.90;;;;;;5055829;28;20033;-67
2022/05/20 00:36:15;;;;;;;38.65;25.00;;;13.10;99.90;;;;;;5055758;28;20033;-67
2022/05/20 00:38:40;;;;;;;33.08;23.15;;;13.00;99.90;;;;;;5055767;28;20040;-67
2022/05/20 00:41:08;;;;;;;29.98;25.27;;;13.00;99.90;;;;;;5055657;28;20104;-67
2022/05/20 00:43:41;;;;;;;39.72;25.48;;;13.00;99.90;;;;;;5055606;28;20469;-67
2022/05/20 00:46:13;;;;;;;27.35;21.55;;;12.90;99.90;;;;;;5055974;28;20412;-67
2022/05/20 00:48:39;;;;;;;31.98;19.85;;;12.90;99.90;;;;;;5055786;28;20388;-67
2022/05/20 00:51:14;;;;;;;22.15;15.50;;;12.90;99.90;;;;;;5055508;28;20461;-67
2022/05/20 00:53:52;;;;;;;29.45;18.20;;;12.80;99.90;;;;;;5055759;28;20028;-67
2022/05/20 00:56:22;;;;;;;30.70;22.15;;;12.70;99.90;;;;;;5055673;28;20027;-67
2022/05/20 00:58:49;;;;;;;34.63;20.00;;;12.70;99.90;;;;;;5055383;28;20047;-67
2022/05/20 01:01:14;;;;;;;28.45;19.42;;;12.80;99.90;;;;;;5055289;28;20025;-67
2022/05/20 01:03:41;;;;;;;34.58;20.85;;;12.70;99.90;;;;;;5055273;28;20534;-67
2022/05/20 01:06:08;;;;;;;33.30;18.83;;;12.80;99.90;;;;;;5055187;28;20060;-67
2022/05/20 01:08:34;;;;;;;37.88;18.40;;;12.80;99.90;;;;;;5054980;28;20044;-67
2022/05/20 01:10:59;;;;;;;29.77;15.70;;;12.80;99.90;;;;;;5055158;28;20036;-67
2022/05/20 01:13:28;;;;;;;25.90;15.32;;;12.70;99.90;;;;;;5055138;28;20174;-67
2022/05/20 01:15:55;;;;;;;23.48;13.88;;;12.70;99.90;;;;;;5055201;28;20530;-67
2022/05/20 01:18:21;;;;;;;22.55;14.95;;;12.60;99.90;;;;;;5054881;28;20024;-67
2022/05/20 01:20:51;;;;;;;16.02;11.38;;;12.60;99.90;;;;;;5054911;28;20021;-67
2022/05/20 01:23:19;;;;;;;26.42;13.50;;;12.70;99.90;;;;;;5054692;28;20032;-68
2022/05/20 01:25:49;;;;;;;18.38;9.07;;;12.70;99.90;;;;;;5054826;28;20076;-67
2022/05/20 01:28:17;;;;;;;18.08;9.95;;;12.70;99.90;;;;;;5055005;28;20025;-68
2022/05/20 01:30:47;;;;;;;13.68;10.02;;;12.70;99.90;;;;;;5054761;28;20079;-68
2022/05/20 01:33:21;;;;;;;15.32;9.50;;;12.70;99.90;;;;;;5054595;28;20021;-68
2022/05/20 01:35:47;;;;;;;17.48;9.18;;;12.70;99.90;;;;;;5054623;28;20064;-68
2022/05/20 01:38:13;;;;;;;17.85;8.68;;;12.80;99.90;;;;;;5054538;28;20059;-68
2022/05/20 01:40:41;;;;;;;9.70;6.97;;;12.80;99.90;;;;;;5054444;28;20411;-67
2022/05/20 01:43:23;;;;;;;10.73;7.78;;;12.90;99.90;;;;;;5054501;28;20052;-67
2022/05/20 01:46:09;;;;;;;14.40;8.73;;;12.90;99.90;;;;;;5053889;28;20078;-68
2022/05/20 01:48:53;;;;;;;10.40;6.82;;;13.00;99.90;;;;;;5054236;28;20017;-68
2022/05/20 01:51:21;;;;;;;12.98;7.20;;;13.00;99.90;;;;;;5054678;28;20117;-68
2022/05/20 01:53:57;;;;;;;9.55;5.60;;;13.00;99.90;;;;;;5054253;28;20029;-68
2022/05/20 01:56:30;;;;;;;7.63;5.97;;;13.10;99.90;;;;;;5054223;28;20021;-68
2022/05/20 01:59:07;;;;;;;10.88;5.15;;;13.10;99.90;;;;;;5054417;28;20361;-68
2022/05/20 02:01:46;;;;;;;10.52;5.43;;;13.10;99.90;;;;;;5054531;28;20040;-68
2022/05/20 02:04:21;;;;;;;8.15;5.40;;;13.10;99.90;;;;;;5054429;28;20025;-68
2022/05/20 02:06:53;;;;;;;8.63;4.97;;;13.10;99.90;;;;;;5054124;28;20057;-68
2022/05/20 02:09:24;;;;;;;9.93;5.60;;;13.20;99.90;;;;;;5054114;28;20666;-67
2022/05/20 02:11:54;;;;;;;10.57;5.20;;;13.10;99.90;;;;;;5054266;28;20033;-67
2022/05/20 02:14:31;;;;;;;9.90;5.82;;;13.10;99.90;;;;;;5053923;28;20029;-67
2022/05/20 02:17:13;;;;;;;7.60;5.43;;;13.10;99.90;;;;;;5053799;28;20031;-67
2022/05/20 02:19:57;;;;;;;8.52;5.50;;;13.10;99.90;;;;;;5054071;28;20075;-67
2022/05/20 02:22:26;;;;;;;5.85;4.93;;;13.10;99.90;;;;;;5054059;28;20029;-68
2022/05/20 02:24:54;;;;;;;13.35;5.57;;;13.10;99.90;;;;;;5053652;28;20072;-68
2022/05/20 02:27:24;;;;;;;7.53;5.13;;;13.20;99.90;;;;;;5053672;28;20033;-68
2022/05/20 02:29:56;;;;;;;11.20;5.93;;;13.20;99.90;;;;;;5053771;28;20104;-68
2022/05/20 02:32:28;;;;;;;11.85;6.40;;;13.20;99.90;;;;;;5053936;28;20029;-68
2022/05/20 02:34:54;;;;;;;11.05;5.63;;;13.10;99.90;;;;;;5053695;28;20025;-68
2022/05/20 02:37:29;;;;;;;16.05;6.22;;;13.10;99.90;;;;;;5053772;28;20029;-68
2022/05/20 02:39:55;;;;;;;14.15;6.57;;;13.10;99.90;;;;;;5053986;28;20111;-67
2022/05/20 02:42:21;;;;;;;8.68;5.88;;;13.10;99.90;;;;;;5053789;28;20036;-67
2022/05/20 02:44:47;;;;;;;14.68;6.63;;;13.10;99.90;;;;;;5052994;28;20021;-67
2022/05/20 02:47:13;;;;;;;14.75;6.63;;;13.10;99.90;;;;;;5053446;28;20064;-67
2022/05/20 02:49:39;;;;;;;10.90;6.78;;;13.00;99.90;;;;;;5054476;28;20071;-67
2022/05/20 02:52:05;;;;;;;9.50;5.97;;;13.00;99.90;;;;;;5053655;28;20025;-67
2022/05/20 02:54:30;;;;;;;13.32;6.45;;;12.90;99.90;;;;;;5053356;28;20044;-68
2022/05/20 02:56:56;;;;;;;15.02;7.22;;;12.90;99.90;;;;;;5053276;28;20021;-68
2022/05/20 03:04:50;;;;;;;12.90;6.25;;;12.90;99.90;;;;;;5053301;28;20083;-67
2022/05/20 03:07:15;;;;;;;13.73;7.78;;;13.00;99.90;;;;;;5052990;28;20493;-67
2022/05/20 03:09:41;;;;;;;14.88;7.85;;;12.90;99.90;;;;;;5053181;28;20465;-67
2022/05/20 03:12:07;;;;;;;12.85;8.05;;;12.90;99.90;;;;;;5049984;28;20061;-68
2022/05/20 03:14:33;;;;;;;16.65;7.32;;;13.00;99.90;;;;;;5033723;28;20025;-67
2022/05/20 03:16:59;;;;;;;17.35;7.22;;;13.00;99.90;;;;;;5033395;28;20026;-67
2022/05/20 03:19:30;;;;;;;9.63;6.28;;;13.00;99.90;;;;;;5033153;28;20022;-67
2022/05/20 03:22:00;;;;;;;8.68;6.07;;;13.00;99.90;;;;;;5033235;28;20478;-67
2022/05/20 03:24:26;;;;;;;12.48;6.72;;;13.00;99.90;;;;;;5033443;28;20498;-67
2022/05/20 03:26:52;;;;;;;11.23;6.22;;;13.10;99.90;;;;;;5032967;28;20488;-67
2022/05/20 03:29:18;;;;;;;8.48;5.40;;;13.10;99.90;;;;;;5033380;28;20029;-67
2022/05/20 03:31:44;;;;;;;7.32;5.07;;;13.10;99.90;;;;;;5033332;28;20527;-67
2022/05/20 03:34:11;;;;;;;8.68;5.15;;;13.10;99.90;;;;;;5033097;28;20516;-67
2022/05/20 03:36:44;;;;;;;10.25;5.30;;;13.10;99.90;;;;;;5032945;28;20053;-67
2022/05/20 03:39:12;;;;;;;8.40;4.55;;;13.10;99.90;;;;;;5033205;28;20116;-67
2022/05/20 03:41:38;;;;;;;11.32;4.65;;;13.10;99.90;;;;;;5033280;28;20022;-68
2022/05/20 03:44:06;;;;;;;7.47;4.93;;;13.10;99.90;;;;;;5050152;28;20033;-68
2022/05/20 03:46:32;;;;;;;10.65;5.50;;;13.10;99.90;;;;;;5051609;28;20056;-68
2022/05/20 03:49:00;;;;;;;10.60;5.93;;;13.10;99.90;;;;;;5052830;28;20103;-67
2022/05/20 03:51:27;;;;;;;19.98;5.80;;;13.10;99.90;;;;;;5052779;28;20499;-67
2022/05/20 03:53:52;;;;;;;15.57;5.97;;;13.10;99.90;;;;;;5053025;28;20033;-67
2022/05/20 03:56:18;;;;;;;15.35;6.43;;;13.10;99.90;;;;;;5055872;28;20028;-67
2022/05/20 03:58:43;;;;;;;15.30;7.90;;;13.10;99.90;;;;;;5051714;28;20434;-67
2022/05/20 04:03:55;;;;;;;18.38;9.95;;;13.00;99.90;;;;;;5056475;28;20036;-67
2022/05/20 04:06:21;;;;;;;20.55;10.68;;;13.00;99.90;;;;;;5056806;28;20022;-67
2022/05/20 04:08:46;;;;;;;17.88;10.07;;;12.90;99.90;;;;;;5056319;28;20051;-67
2022/05/20 04:11:13;;;;;;;14.85;9.68;;;12.80;99.90;;;;;;5056290;28;20028;-67
2022/05/20 04:13:40;;;;;;;13.88;10.07;;;12.80;99.90;;;;;;5056206;28;20052;-67
2022/05/20 04:16:07;;;;;;;16.25;9.77;;;12.80;99.90;;;;;;5056204;28;20053;-67
2022/05/20 04:18:33;;;;;;;14.07;10.45;;;12.80;99.90;;;;;;5056004;28;20362;-67
2022/05/20 04:20:59;;;;;;;16.35;9.13;;;12.80;99.90;;;;;;5056392;28;20029;-67
2022/05/20 04:23:24;;;;;;;17.73;9.15;;;12.80;99.90;;;;;;5056019;28;20056;-67
2022/05/20 04:25:50;;;;;;;17.40;9.18;;;12.80;99.90;;;;;;5056016;28;20029;-67
2022/05/20 04:28:16;;;;;;;14.48;8.68;;;12.70;99.90;;;;;;5042091;28;20072;-67
2022/05/20 04:30:41;;;;;;;11.93;9.32;;;12.70;99.90;;;;;;5036015;28;20108;-67
2022/05/20 04:33:08;;;;;;;16.05;9.73;;;12.70;99.90;;;;;;5035982;28;20033;-67
2022/05/20 04:35:34;;;;;;;11.07;8.45;;;12.70;99.90;;;;;;5036090;28;20025;-67
2022/05/20 04:37:59;;;;;;;13.98;8.00;;;12.70;99.90;;;;;;5035827;28;20032;-67
2022/05/20 04:40:25;;;;;;;10.65;7.47;;;12.70;99.90;;;;;;5035804;28;20036;-67
2022/05/20 04:48:22;;;;;;;12.23;7.05;;;12.60;99.90;;;;;;5035913;28;19994;-67
2022/05/20 04:50:47;;;;;;;12.27;7.28;;;12.60;99.90;;;;;;5035584;28;20061;-67
2022/05/20 04:54:49;;;;;;;9.27;6.40;;;12.60;99.90;;;;;;5035691;28;20143;-67
2022/05/20 04:55:58;;;;;;;10.13;6.40;;;12.60;99.90;;;;;;5035326;28;20037;-67
2022/05/20 04:58:25;;;;;;;7.28;5.88;;;12.60;99.90;;;;;;5035432;28;20406;-67
2022/05/20 05:00:50;;;;;;;6.28;4.95;;;12.60;99.90;;;;;;5035561;28;20029;-67
2022/05/20 05:03:16;;;;;;;8.05;4.50;;;12.60;99.90;;;;;;5035383;28;20030;-67
2022/05/20 05:05:42;;;;;;;10.80;5.20;;;12.60;99.90;;;;;;5035611;28;20025;-67
2022/05/20 05:08:07;;;;;;;10.68;5.30;;;12.70;99.90;;;;;;5034396;28;20424;-67
2022/05/20 05:10:33;;;;;;;6.05;4.07;;;12.70;99.90;;;;;;5035228;28;20030;-67
2022/05/20 05:13:00;;;;;;;9.50;5.05;;;12.80;99.90;;;;;;5035197;28;20030;-67
2022/05/20 05:15:26;;;;;;;10.38;4.30;;;12.80;99.90;;;;;;5035473;28;20033;-67
2022/05/20 05:20:35;;;;;;;;;;;12.90;99.90;;;;;;5035559;28;20118;-67
2022/05/20 05:23:02;;;;;;;5.55;4.18;;;13.00;99.90;;;;;;5035306;28;20345;-67
2022/05/20 05:25:31;;;;;;;7.35;4.35;;;13.00;99.90;;;;;;5035180;28;20112;-67
2022/05/20 05:27:57;;;;;;;6.53;4.18;;;13.10;99.90;;;;;;5034760;28;20064;-67
2022/05/20 05:30:23;;;;;;;12.35;5.65;;;13.10;99.90;;;;;;5034876;28;20029;-67
2022/05/20 05:32:49;;;;;;;13.43;5.88;;;13.10;99.90;;;;;;5034903;28;20532;-67
2022/05/20 05:35:18;;;;;;;11.98;6.07;;;13.20;99.90;;;;;;5034657;28;20112;-67
2022/05/20 05:37:43;;;;;;;12.15;6.20;;;13.10;99.90;;;;;;5034723;28;20545;-67
2022/05/20 05:40:13;;;;;;;10.40;5.88;;;13.10;99.90;;;;;;5034651;28;20125;-67
2022/05/20 05:42:41;;;;;;;6.90;5.13;;;13.10;99.90;;;;;;5034922;28;20370;-67
2022/05/20 05:45:08;;;;;;;12.80;5.28;;;13.10;99.90;;;;;;5034684;28;20024;-67
2022/05/20 05:47:33;;;;;;;11.20;6.15;;;13.10;99.90;;;;;;5034635;28;20021;-67
2022/05/20 05:49:59;;;;;;;9.95;5.10;;;13.10;99.90;;;;;;5034774;28;20135;-67
2022/05/20 05:52:24;;;;;;;11.18;5.35;;;13.10;99.90;;;;;;5034671;28;20026;-67
2022/05/20 05:54:50;;;;;;;6.40;5.20;;;13.10;99.90;;;;;;5034436;28;20033;-67
2022/05/20 05:57:15;;;;;;;11.05;5.35;;;13.10;99.90;;;;;;5034462;28;20048;-67
2022/05/20 05:59:41;;;;;;;10.20;5.22;;;13.00;99.90;;;;;;5034236;28;20422;-67
2022/05/20 06:02:08;;;;;;;8.70;4.68;;;13.00;99.90;;;;;;5034432;28;20072;-67
2022/05/20 06:04:34;;;;;;;5.93;4.95;;;13.00;99.90;;;;;;5034190;28;20426;-67
2022/05/20 06:09:27;;;;;;;5.80;4.47;;;13.10;99.90;;;;;;5053230;28;20085;-70
2022/05/20 06:11:53;;;;;;;10.23;4.70;;;13.20;99.90;;;;;;5054266;28;20017;-70
2022/05/20 06:14:19;;;;;;;12.50;5.57;;;13.20;99.90;;;;;;5054273;28;20021;-70
2022/05/20 06:16:45;;;;;;;8.48;4.82;;;13.20;99.90;;;;;;5054172;28;20021;-70
2022/05/20 06:19:11;;;;;;;10.77;4.75;;;13.20;99.90;;;;;;5036146;28;20082;-70
2022/05/20 06:21:40;;;;;;;10.38;4.28;;;13.20;99.90;;;;;;5054223;28;20028;-70
2022/05/20 06:24:08;;;;;;;8.75;4.53;;;13.20;99.90;;;;;;5054315;28;20020;-70
2022/05/20 06:26:35;;;;;;;6.00;4.15;;;13.20;99.90;;;;;;5053980;28;20017;-70
2022/05/20 06:29:03;;;;;;;6.90;4.32;;;13.20;99.90;;;;;;5053806;28;20023;-70
2022/05/20 06:31:28;;;;;;;7.38;5.13;;;13.10;99.90;;;;;;5053870;28;20366;-70
2022/05/20 06:33:54;;;;;;;10.73;4.55;;;13.10;99.90;;;;;;5054159;28;20032;-70
2022/05/20 06:41:47;;;;;;;10.68;6.57;;;13.10;99.90;;;;;;5054099;28;19912;-71
2022/05/20 06:44:14;;;;;;;7.97;6.18;;;13.10;99.90;;;;;;5053742;28;20025;-71
2022/05/20 06:46:40;;;;;;;9.95;6.93;;;13.10;99.90;;;;;;5053764;28;20469;-71
2022/05/20 06:49:06;;;;;;;12.85;6.45;;;13.20;99.90;;;;;;5035714;28;20075;-71
2022/05/20 06:51:34;;;;;;;9.95;6.20;;;13.20;99.90;;;;;;5053750;28;20032;-71
2022/05/20 06:54:01;;;;;;;8.35;5.97;;;13.30;99.90;;;;;;5053702;28;20025;-71
2022/05/20 06:56:28;;;;;;;8.75;5.70;;;13.40;99.90;;;;;;5053474;28;20021;-71
2022/05/20 06:58:59;;;;;;;10.88;6.85;;;13.50;99.90;;;;;;5053393;28;20104;-71
2022/05/20 07:01:25;;;;;;;10.70;6.20;;;13.70;99.90;;;;;;5053911;28;20025;-71
2022/05/20 07:03:51;;;;;;;14.35;6.68;;;13.70;99.90;;;;;;5053419;28;20071;-71
2022/05/20 07:06:17;;;;;;;7.90;6.32;;;13.80;99.90;;;;;;5053409;28;20049;-71
2022/05/20 07:08:48;;;;;;;9.10;7.15;;;14.00;99.90;;;;;;5053237;28;20037;-71
2022/05/20 07:11:14;;;;;;;10.68;6.60;;;14.10;99.90;;;;;;5053694;28;20033;-71
2022/05/20 07:13:40;;;;;;;9.07;6.32;;;14.30;99.90;;;;;;5053485;28;20022;-71
2022/05/20 07:16:06;;;;;;;7.95;5.45;;;14.40;99.90;;;;;;5053776;28;20029;-70
2022/05/20 07:18:33;;;;;;;12.93;5.97;;;14.60;99.90;;;;;;5053345;28;20032;-71
2022/05/20 07:20:59;;;;;;;8.10;5.65;;;14.70;99.90;;;;;;5053055;28;20469;-71
2022/05/20 07:23:28;;;;;;;8.30;4.80;;;14.70;99.90;;;;;;5053233;28;20105;-71
2022/05/20 07:25:53;;;;;;;14.63;5.90;;;14.70;99.90;;;;;;5053203;28;20539;-71
2022/05/20 07:28:19;;;;;;;6.68;4.68;;;14.60;99.90;;;;;;5053081;28;20045;-71
2022/05/20 07:30:45;;;;;;;8.45;4.88;;;14.60;99.90;;;;;;5055306;28;20538;-71
2022/05/20 07:33:11;;;;;;;8.10;5.18;;;14.60;99.90;;;;;;5057330;28;20392;-71
2022/05/20 07:35:38;;;;;;;8.65;5.45;;;14.60;99.90;;;;;;5057077;28;20021;-71
2022/05/20 07:38:05;;;;;;;7.05;5.00;;;14.50;99.90;;;;;;5056958;28;20040;-71
2022/05/20 07:40:30;;;;;;;10.40;5.05;;;14.40;99.90;;;;;;5057929;28;20499;-71
2022/05/20 07:42:56;;;;;;;7.15;5.60;;;14.50;99.90;;;;;;5057705;28;20112;-71
2022/05/20 07:45:22;;;;;;;9.52;5.55;;;14.60;99.90;;;;;;5057270;28;20021;-71
2022/05/20 07:47:47;;;;;;;6.63;4.63;;;14.70;99.90;;;;;;5056783;28;20021;-72
2022/05/20 07:50:13;;;;;;;16.77;3.92;;;14.90;99.90;;;;;;5056854;28;20057;-71
2022/05/20 07:55:35;;;;;;;12.60;4.85;;;15.20;99.90;;;;;;5057178;28;20519;-71
2022/05/20 07:58:03;;;;;;;11.02;4.05;;;15.40;99.90;;;;;;5056564;28;20146;-71
2022/05/20 08:00:29;;;;;;;8.63;4.00;;;15.30;99.90;;;;;;5057155;28;20048;-71
2022/05/20 08:03:00;;;;;;;8.27;3.83;;;15.20;99.90;;;;;;5056463;28;20099;-71
2022/05/20 08:05:27;;;;;;;10.82;3.80;;;15.20;99.90;;;;;;5056663;28;20376;-71
2022/05/20 08:08:00;;;;;;;12.50;3.70;;;15.10;99.90;;;;;;5056370;28;20396;-71
2022/05/20 08:10:27;;;;;;;7.03;3.38;;;15.10;99.90;;;;;;5056720;28;20151;-71
2022/05/20 08:12:53;;;;;;;8.73;3.92;;;15.20;99.90;;;;;;5056166;28;20037;-71
2022/05/20 08:15:18;;;;;;;10.05;4.80;;;15.40;99.90;;;;;;5056254;28;20032;-71
2022/05/20 08:17:44;;;;;;;18.88;4.45;;;15.60;99.90;;;;;;5056186;28;20029;-71
2022/05/20 08:20:22;;;;;;;7.40;3.95;;;15.50;99.90;;;;;;5056420;28;20461;-71
2022/05/20 08:22:49;;;;;;;8.20;3.60;;;15.40;99.90;;;;;;5056271;28;20028;-71
2022/05/20 08:25:15;;;;;;;7.95;2.88;;;15.30;99.90;;;;;;5056396;28;20468;-71
2022/05/20 08:27:41;;;;;;;6.40;3.33;;;15.10;99.90;;;;;;5056100;28;20540;-71
2022/05/20 08:30:23;;;;;;;8.73;3.45;;;15.10;99.90;;;;;;5056062;28;20060;-71
2022/05/20 08:32:48;;;;;;;8.27;3.13;;;15.20;99.90;;;;;;5056239;28;20033;-71
2022/05/20 08:35:15;;;;;;;4.55;2.97;;;15.40;99.90;;;;;;5056154;28;20108;-71
2022/05/20 08:37:43;;;;;;;8.25;3.10;;;15.40;99.90;;;;;;5055820;28;20048;-70
2022/05/20 08:40:13;;;;;;;7.32;2.75;;;15.50;99.90;;;;;;5055859;28;20017;-70
2022/05/20 08:42:39;;;;;;;14.93;3.05;;;15.50;99.90;;;;;;5054755;28;20053;-70
2022/05/20 08:45:06;;;;;;;13.70;3.67;;;15.60;99.90;;;;;;5055903;28;20021;-70
2022/05/20 08:47:42;;;;;;;8.18;2.63;;;15.70;99.90;;;;;;5055753;28;20025;-70
2022/05/20 08:50:14;;;;;;;7.20;2.63;;;15.80;99.90;;;;;;5055951;28;20021;-70
2022/05/20 08:52:41;;;;;;;15.00;2.65;;;15.80;99.90;;;;;;5055817;28;20025;-70
2022/05/20 08:55:08;;;;;;;7.45;2.97;;;15.70;99.90;;;;;;5055544;28;20100;-70
2022/05/20 08:57:34;;;;;;;11.55;2.55;;;15.60;99.90;;;;;;5055516;28;20427;-70
2022/05/20 09:00:03;;;;;;;8.00;2.83;;;15.70;99.90;;;;;;5055348;28;20046;-70
2022/05/20 09:02:28;;;;;;;7.65;2.58;;;15.70;99.90;;;;;;5055402;28;20052;-70
2022/05/20 09:04:54;;;;;;;11.98;2.42;;;15.80;99.90;;;;;;5055164;28;20412;-70
2022/05/20 09:07:20;;;;;;;8.00;2.58;;;16.00;99.90;;;;;;5055139;28;20032;-70
2022/05/20 09:09:53;;;;;;;7.20;1.98;;;16.30;99.90;;;;;;5037693;28;20052;-70
2022/05/20 09:12:34;;;;;;;5.38;2.22;;;16.60;99.90;;;;;;5055228;28;20507;-70
2022/05/20 09:17:49;;;;;;;6.30;2.00;;;17.10;99.90;;;;;;5055334;28;20036;-70
2022/05/20 09:20:18;;;;;;;4.97;2.22;;;16.90;99.90;;;;;;5054986;28;20107;-70
2022/05/20 09:22:55;;;;;;;7.45;2.25;;;16.80;99.90;;;;;;5055180;28;20021;-70
2022/05/20 09:25:28;;;;;;;8.85;2.15;;;16.80;99.90;;;;;;5055127;28;20098;-70
2022/05/20 09:28:13;;;;;;;7.50;2.17;;;17.00;99.90;;;;;;5054819;28;20017;-70
2022/05/20 09:30:41;;;;;;;4.80;2.10;;;17.00;99.90;;;;;;5055391;28;20469;-70
2022/05/20 09:33:17;;;;;;;9.98;2.28;;;17.00;99.90;;;;;;5054966;28;20033;-70
2022/05/20 09:35:56;;;;;;;5.07;2.10;;;16.60;99.90;;;;;;5055077;28;20162;-70
2022/05/20 09:38:38;;;;;;;8.93;2.72;;;16.30;99.90;;;;;;5054885;28;20025;-70
2022/05/20 09:41:14;;;;;;;3.85;1.50;;;16.20;99.90;;;;;;5054881;28;20381;-69
2022/05/20 09:43:42;;;;;;;9.27;3.03;;;16.50;99.90;;;;;;5054548;28;20021;-70
2022/05/20 09:46:35;;;;;;;9.02;2.25;;;16.80;99.90;;;;;;5054476;28;20479;-70
2022/05/20 09:49:12;;;;;;;14.05;2.92;;;17.00;99.90;;;;;;5036573;28;20389;-70
2022/05/20 09:51:48;;;;;;;11.57;2.72;;;17.00;99.90;;;;;;5054654;28;20017;-70
2022/05/20 09:54:20;;;;;;;11.45;2.33;;;17.10;99.90;;;;;;5054149;28;20032;-70
2022/05/20 09:57:03;;;;;;;9.25;2.22;;;17.10;99.90;;;;;;5054635;28;20086;-70
2022/05/20 09:59:31;;;;;;;8.57;2.22;;;17.00;99.90;;;;;;5054334;28;20025;-70
2022/05/20 10:02:41;;;;;;;8.57;2.33;;;17.50;99.90;;;;;;5036777;28;20392;-70
2022/05/20 10:05:12;;;;;;;10.30;2.47;;;17.90;99.90;;;;;;5053818;28;20041;-70
2022/05/20 10:08:00;;;;;;;4.07;1.80;;;18.10;99.90;;;;;;5053918;28;20499;-70
2022/05/20 10:10:37;;;;;;;4.43;2.00;;;18.40;99.90;;;;;;5054024;28;20495;-70
2022/05/20 10:13:08;;;;;;;8.52;2.33;;;18.60;99.90;;;;;;5054297;28;20036;-70
2022/05/20 10:15:46;;;;;;;9.02;2.22;;;19.00;99.90;;;;;;5054257;28;20021;-70
2022/05/20 10:18:33;;;;;;;6.45;2.30;;;19.30;99.90;;;;;;5053904;28;20029;-70
2022/05/20 10:21:20;;;;;;;5.50;1.65;;;19.20;99.90;;;;;;5053821;28;20533;-70
2022/05/20 10:24:34;;;;;;;6.68;2.00;;;18.90;99.90;;;;;;5054355;28;20021;-70
2022/05/20 10:27:19;;;;;;;6.60;1.98;;;18.70;99.90;;;;;;4992928;28;20055;-70
2022/05/20 10:33:09;;;;;;;7.82;1.98;;;18.30;99.90;;;;;;5054274;28;20527;-70
2022/05/20 10:35:34;;;;;;;7.72;2.00;;;18.70;99.90;;;;;;5049144;28;20025;-70
2022/05/20 10:38:12;;;;;;;16.48;2.55;;;18.60;99.90;;;;;;5053548;28;20468;-70
2022/05/20 10:41:01;;;;;;;9.20;1.88;;;18.70;99.90;;;;;;5053772;28;20052;-70
2022/05/20 10:50:10;;;;;;;5.88;2.17;;;18.50;99.90;;;;;;5033594;28;20563;-70
2022/05/20 10:53:00;;;;;;;10.82;2.13;;;18.50;99.90;;;;;;5033668;28;20030;-70
2022/05/20 10:55:49;;;;;;;5.55;1.88;;;18.50;99.90;;;;;;5033458;28;20033;-70
2022/05/20 10:58:20;;;;;;;9.35;2.10;;;18.40;99.90;;;;;;5033592;28;20082;-69
2022/05/20 11:00:52;;;;;;;12.55;2.80;;;18.70;99.90;;;;;;5033290;28;20036;-70
2022/05/20 11:04:00;;;;;;;6.03;2.15;;;18.50;99.90;;;;;;5033363;28;20026;-70
2022/05/20 11:06:32;;;;;;;8.18;1.95;;;18.50;99.90;;;;;;4992473;28;20415;-70
2022/05/20 11:09:22;;;;;;;6.90;2.22;;;18.60;99.90;;;;;;5033533;28;20108;-70
2022/05/20 11:11:50;;;;;;;8.25;2.20;;;18.70;99.90;;;;;;5033302;28;20025;-70
2022/05/20 11:14:34;;;;;;;11.32;2.00;;;18.80;99.90;;;;;;5033512;28;20075;-70
2022/05/20 11:17:05;;;;;;;15.10;2.03;;;18.80;99.90;;;;;;5033481;28;20028;-70
2022/05/20 11:19:40;;;;;;;11.80;2.20;;;18.80;99.90;;;;;;5033248;28;20030;-70
2022/05/20 11:22:32;;;;;;;7.95;2.80;;;18.80;99.90;;;;;;5033729;28;20434;-70
2022/05/20 11:25:31;;;;;;;8.18;2.60;;;19.00;99.90;;;;;;5003107;28;20402;-70
2022/05/20 11:27:59;;;;;;;10.30;2.33;;;19.10;99.90;;;;;;5033136;28;20132;-70
2022/05/20 11:30:51;;;;;;;7.03;1.95;;;19.30;99.90;;;;;;5033096;28;20034;-70
2022/05/20 11:33:38;;;;;;;6.97;2.38;;;19.30;99.90;;;;;;5033141;28;20056;-70
2022/05/20 11:36:25;;;;;;;4.97;1.92;;;19.30;99.90;;;;;;5033101;28;20426;-70
2022/05/20 11:39:28;;;;;;;12.27;2.22;;;19.50;99.90;;;;;;5032902;28;20075;-70
2022/05/20 11:42:20;;;;;;;8.30;2.40;;;19.60;99.90;;;;;;5032810;28;20021;-70
2022/05/20 11:45:10;;;;;;;9.95;2.72;;;19.70;99.90;;;;;;5015256;28;20038;-70
2022/05/20 11:47:58;;;;;;;9.55;2.25;;;19.40;99.90;;;;;;5032894;28;20535;-70
2022/05/20 11:50:42;;;;;;;7.88;2.40;;;19.20;99.90;;;;;;5033233;28;20052;-70
2022/05/20 11:53:38;;;;;;;12.55;2.15;;;19.10;99.90;;;;;;5033302;28;20087;-70
2022/05/20 11:56:34;;;;;;;10.13;2.20;;;19.00;99.90;;;;;;5032882;28;20029;-70
2022/05/20 11:59:15;;;;;;;6.75;2.08;;;18.80;99.90;;;;;;5032982;28;20046;-70
2022/05/20 12:01:43;;;;;;;9.40;2.20;;;18.70;99.90;;;;;;5032813;28;20021;-70
2022/05/20 12:04:10;;;;;;;5.72;1.95;;;18.60;99.90;;;;;;5033222;28;20374;-70
2022/05/20 12:06:51;;;;;;;12.18;2.80;;;18.50;99.90;;;;;;5032796;28;20390;-70
2022/05/20 12:09:28;;;;;;;12.82;2.50;;;18.70;99.90;;;;;;5033133;28;20044;-70
2022/05/20 12:12:13;;;;;;;8.43;2.22;;;18.60;99.90;;;;;;5033028;28;20029;-70
2022/05/20 12:15:12;;;;;;;9.27;2.03;;;18.70;99.90;;;;;;5032550;28;20037;-70
2022/05/20 12:17:52;;;;;;;7.13;2.10;;;18.80;99.90;;;;;;5036162;28;20028;-71
2022/05/20 12:26:16;;;;;;;8.05;2.08;;;19.10;99.90;;;;;;5036922;28;20028;-70
2022/05/20 12:28:42;;;;;;;13.13;2.28;;;19.00;99.90;;;;;;5036180;28;20026;-70
2022/05/20 12:31:14;;;;;;;10.18;2.47;;;19.20;99.90;;;;;;5036006;28;20080;-70
2022/05/20 12:33:56;;;;;;;11.23;2.58;;;19.20;99.90;;;;;;5035794;28;20037;-70
2022/05/20 12:36:27;;;;;;;6.82;2.42;;;19.30;99.90;;;;;;5035913;28;20485;-70
2022/05/20 12:39:18;;;;;;;6.22;2.03;;;19.30;99.90;;;;;;5035762;28;20035;-70
2022/05/20 12:41:49;;;;;;;9.23;2.13;;;19.00;99.90;;;;;;5036074;28;20025;-70
2022/05/20 12:44:21;;;;;;;7.13;2.05;;;19.00;99.90;;;;;;5036310;28;20100;-70
2022/05/20 12:47:01;;;;;;;10.18;2.22;;;19.30;99.90;;;;;;5017993;28;20048;-70
2022/05/20 12:49:36;;;;;;;9.30;2.22;;;19.50;99.90;;;;;;5035889;28;20022;-70
2022/05/20 12:52:25;;;;;;;7.93;2.25;;;19.60;99.90;;;;;;5017831;28;20026;-70
2022/05/20 12:54:54;;;;;;;11.30;2.45;;;20.20;99.90;;;;;;5035603;28;20033;-70
2022/05/20 12:57:44;;;;;;;11.77;2.90;;;20.30;99.90;;;;;;5035632;28;20021;-70
2022/05/20 13:00:12;;;;;;;14.73;2.78;;;20.30;99.90;;;;;;5022178;28;20128;-70
2022/05/20 13:02:42;;;;;;;12.70;3.08;;;20.10;99.90;;;;;;5035576;28;20021;-70
2022/05/20 13:05:26;;;;;;;11.93;2.30;;;20.50;99.90;;;;;;5035708;28;20045;-70
2022/05/20 13:07:54;;;;;;;12.60;3.45;;;21.00;99.90;;;;;;5035430;28;20033;-70
2022/05/20 13:10:24;;;;;;;11.02;2.30;;;21.00;99.90;;;;;;5035270;28;20029;-71
2022/05/20 13:12:52;;;;;;;7.68;1.98;;;20.90;99.90;;;;;;5035291;28;20135;-71
2022/05/20 13:15:19;;;;;;;9.45;2.28;;;21.10;99.90;;;;;;5035179;28;20478;-70
2022/05/20 13:17:56;;;;;;;7.70;2.25;;;21.30;99.90;;;;;;5035084;28;20029;-70
2022/05/20 13:20:21;;;;;;;8.40;2.10;;;21.00;99.90;;;;;;5035285;28;20493;-70
2022/05/20 13:22:50;;;;;;;11.18;2.47;;;21.10;99.90;;;;;;5034915;28;20021;-70
2022/05/20 13:25:17;;;;;;;6.20;2.10;;;21.40;99.90;;;;;;5035753;28;20029;-70
2022/05/20 13:27:48;;;;;;;12.88;2.33;;;21.60;99.90;;;;;;5034373;28;20476;-70
2022/05/20 13:30:20;;;;;;;12.98;2.42;;;21.80;99.90;;;;;;5035412;28;20075;-70
2022/05/20 13:32:45;;;;;;;8.68;2.38;;;22.60;99.90;;;;;;5034764;28;20026;-70
2022/05/20 13:35:11;;;;;;;9.02;2.17;;;23.60;99.90;;;;;;5034771;28;20036;-70
2022/05/20 13:37:38;;;;;;;21.65;4.75;;;24.10;99.90;;;;;;5034667;28;20021;-70
2022/05/20 13:40:12;;;;;;;10.38;2.10;;;24.10;99.90;;;;;;5035086;28;20029;-70
2022/05/20 13:42:42;;;;;;;6.13;2.03;;;24.70;99.90;;;;;;5034717;28;20021;-70
2022/05/20 13:45:13;;;;;;;12.55;2.65;;;25.50;99.90;;;;;;5035094;28;20460;-70
2022/05/20 13:50:25;;;;;;;9.70;2.95;;;25.80;99.90;;;;;;5034720;28;20037;-70